Time;durP1;ratioP1;P1;durP2;ratioP2;P2;SDS_P1;SDS_P2;PMS_P1;PMS_P2;Temp;Humidity;BMP_temperature;BMP_pressure;BME280_temperature;BME280_humidity;BME280_pressure;Samples;Min_cycle;Max_cycle;Signal;HPM_P1;HPM_P2
2022/06/08 00:01:11;;;;;;;17.67;2.47;;;;;;;;;;4993658;28;20442;-89
2022/06/08 00:03:41;;;;;;;14.57;1.97;;;;;;;;;;4994090;28;20453;-90
2022/06/08 00:06:10;;;;;;;15.10;2.13;;;;;;;;;;4994196;28;20900;-90
2022/06/08 00:08:37;;;;;;;18.93;2.60;;;;;;;;;;4978382;28;20477;-89
2022/06/08 00:11:04;;;;;;;14.50;2.23;;;;;;;;;;4978095;28;20473;-90
2022/06/08 00:13:36;;;;;;;16.00;2.40;;;;;;;;;;4977267;28;20498;-90
2022/06/08 00:16:03;;;;;;;7.10;1.80;;;;;;;;;;4978363;28;20449;-90
2022/06/08 00:18:31;;;;;;;9.87;2.40;;;;;;;;;;4977936;28;20521;-90
2022/06/08 00:20:58;;;;;;;13.00;2.20;;;;;;;;;;5010415;28;20455;-90
2022/06/08 00:23:25;;;;;;;14.17;2.47;;;;;;;;;;5009648;28;20453;-90
2022/06/08 00:25:52;;;;;;;13.07;2.90;;;;;;;;;;5008919;28;20453;-89
2022/06/08 00:28:20;;;;;;;10.43;2.20;;;;;;;;;;4985279;28;20489;-90
2022/06/08 00:30:48;;;;;;;11.90;1.93;;;;;;;;;;5010031;28;20457;-90
2022/06/08 00:33:16;;;;;;;8.57;2.10;;;;;;;;;;4986147;28;20455;-90
2022/06/08 00:35:43;;;;;;;8.43;2.30;;;;;;;;;;5000614;28;20517;-91
2022/06/08 00:38:10;;;;;;;8.87;1.93;;;;;;;;;;5000414;28;20432;-90
2022/06/08 00:40:41;;;;;;;11.13;2.00;;;;;;;;;;4999920;28;20475;-89
2022/06/08 00:43:08;;;;;;;16.90;2.53;;;;;;;;;;5015502;28;20501;-89
2022/06/08 00:45:35;;;;;;;11.13;1.90;;;;;;;;;;5032994;28;20489;-89
2022/06/08 00:48:05;;;;;;;13.80;2.17;;;;;;;;;;5032256;28;21074;-91
2022/06/08 00:50:42;;;;;;;10.10;2.50;;;;;;;;;;5032515;28;20958;-90
2022/06/08 00:53:10;;;;;;;8.97;1.77;;;;;;;;;;5019529;28;20443;-90
2022/06/08 00:55:38;;;;;;;9.27;2.30;;;;;;;;;;4999952;28;20447;-90
2022/06/08 00:58:26;;;;;;;8.50;1.43;;;;;;;;;;5016447;28;20436;-90
2022/06/08 01:00:53;;;;;;;9.60;1.87;;;;;;;;;;5015475;28;20513;-90
2022/06/08 01:03:21;;;;;;;13.20;2.33;;;;;;;;;;5015543;28;20470;-90
2022/06/08 01:05:57;;;;;;;11.33;1.97;;;;;;;;;;5031943;28;20444;-89
2022/06/08 01:08:29;;;;;;;11.97;2.20;;;;;;;;;;5031168;28;20545;-89
2022/06/08 01:10:57;;;;;;;9.13;2.33;;;;;;;;;;5031923;28;20926;-89
2022/06/08 01:13:26;;;;;;;14.70;2.43;;;;;;;;;;5016154;28;20432;-90
2022/06/08 01:15:53;;;;;;;13.33;2.30;;;;;;;;;;5031522;28;20443;-89
2022/06/08 01:18:20;;;;;;;10.43;1.67;;;;;;;;;;5015444;28;20497;-89
2022/06/08 01:21:08;;;;;;;14.43;2.10;;;;;;;;;;5027451;28;20555;-89
2022/06/08 01:23:35;;;;;;;25.20;3.57;;;;;;;;;;5005339;28;20471;-89
2022/06/08 01:26:14;;;;;;;13.93;1.97;;;;;;;;;;4999479;28;20440;-89
2022/06/08 01:28:53;;;;;;;16.33;2.80;;;;;;;;;;5015309;28;20546;-89
2022/06/08 01:31:24;;;;;;;11.33;1.97;;;;;;;;;;5032373;28;20459;-90
2022/06/08 01:33:51;;;;;;;10.23;2.03;;;;;;;;;;5017938;28;20468;-89
2022/06/08 01:36:33;;;;;;;15.33;2.17;;;;;;;;;;5025034;28;20474;-89
2022/06/08 01:39:21;;;;;;;17.13;2.20;;;;;;;;;;5032962;28;20443;-90
2022/06/08 01:41:49;;;;;;;17.60;2.50;;;;;;;;;;5015699;28;20435;-90
2022/06/08 01:44:23;;;;;;;10.43;2.53;;;;;;;;;;5032642;28;20446;-89
2022/06/08 01:46:51;;;;;;;10.80;1.97;;;;;;;;;;5015561;28;20444;-90
2022/06/08 01:49:23;;;;;;;12.50;2.53;;;;;;;;;;5031204;28;20574;-90
2022/06/08 01:51:58;;;;;;;10.53;2.73;;;;;;;;;;5032976;28;20447;-89
2022/06/08 01:54:30;;;;;;;15.20;1.90;;;;;;;;;;5036791;28;20446;-89
2022/06/08 01:57:02;;;;;;;15.90;2.57;;;;;;;;;;5035556;28;20450;-89
2022/06/08 01:59:44;;;;;;;10.70;2.33;;;;;;;;;;5003120;28;21032;-89
2022/06/08 02:02:27;;;;;;;10.60;2.03;;;;;;;;;;5018988;28;20853;-89
2022/06/08 02:05:12;;;;;;;10.93;3.17;;;;;;;;;;5036606;28;20451;-90
2022/06/08 02:07:52;;;;;;;8.77;1.90;;;;;;;;;;5018788;28;20925;-88
2022/06/08 02:10:24;;;;;;;25.50;2.70;;;;;;;;;;5019214;28;20454;-89
2022/06/08 02:13:03;;;;;;;12.87;3.03;;;;;;;;;;5019867;28;20439;-89
2022/06/08 02:15:31;;;;;;;15.70;2.50;;;;;;;;;;5003030;28;20456;-89
2022/06/08 02:18:26;;;;;;;11.00;3.10;;;;;;;;;;5034514;28;20883;-89
2022/06/08 02:21:13;;;;;;;10.30;2.30;;;;;;;;;;5018944;28;20452;-89
2022/06/08 02:23:51;;;;;;;7.70;1.83;;;;;;;;;;5015399;28;20474;-89
2022/06/08 02:26:28;;;;;;;9.80;1.80;;;;;;;;;;5035231;28;20443;-90
2022/06/08 02:29:03;;;;;;;8.90;2.07;;;;;;;;;;5026916;28;20488;-89
2022/06/08 02:31:34;;;;;;;9.13;2.30;;;;;;;;;;5002435;28;20949;-89
2022/06/08 02:36:51;;;;;;;10.80;2.43;;;;;;;;;;5020914;28;20459;-88
2022/06/08 02:39:29;;;;;;;11.13;2.57;;;;;;;;;;5002069;28;20454;-88
2022/06/08 02:42:02;;;;;;;7.97;1.70;;;;;;;;;;5018258;28;20497;-89
2022/06/08 02:44:30;;;;;;;7.17;2.23;;;;;;;;;;4998455;28;20447;-89
2022/06/08 02:47:10;;;;;;;13.10;2.53;;;;;;;;;;4998513;28;20463;-89
2022/06/08 02:49:37;;;;;;;7.47;2.30;;;;;;;;;;5014873;28;20519;-90
2022/06/08 02:52:07;;;;;;;10.77;2.80;;;;;;;;;;5015936;28;20440;-88
2022/06/08 02:54:34;;;;;;;13.70;2.90;;;;;;;;;;5016499;28;20440;-88
2022/06/08 02:57:03;;;;;;;9.33;2.77;;;;;;;;;;5018020;28;20447;-89
2022/06/08 02:59:50;;;;;;;7.37;2.30;;;;;;;;;;5002229;28;20443;-90
2022/06/08 03:02:22;;;;;;;21.03;3.00;;;;;;;;;;5018181;28;21238;-89
2022/06/08 03:05:01;;;;;;;7.20;2.20;;;;;;;;;;5028360;28;20443;-89
2022/06/08 03:07:32;;;;;;;12.40;2.80;;;;;;;;;;5017444;28;20439;-89
2022/06/08 03:10:03;;;;;;;15.03;2.63;;;;;;;;;;5020087;28;20567;-89
2022/06/08 03:12:32;;;;;;;7.57;1.77;;;;;;;;;;5014271;28;20490;-89
2022/06/08 03:15:01;;;;;;;13.33;2.73;;;;;;;;;;5014952;28;20502;-88
2022/06/08 03:17:30;;;;;;;14.03;2.07;;;;;;;;;;5011230;28;20538;-90
2022/06/08 03:19:59;;;;;;;12.03;2.50;;;;;;;;;;5015263;28;20467;-89
2022/06/08 03:22:28;;;;;;;5.53;2.03;;;;;;;;;;5001263;28;20471;-88
2022/06/08 03:24:55;;;;;;;12.73;2.17;;;;;;;;;;5017584;28;21059;-89
2022/06/08 03:27:23;;;;;;;12.40;2.63;;;;;;;;;;5000863;28;20444;-89
2022/06/08 03:29:50;;;;;;;8.87;2.30;;;;;;;;;;4996809;28;20488;-89
2022/06/08 03:32:24;;;;;;;15.63;2.60;;;;;;;;;;5003230;28;20439;-89
2022/06/08 03:34:51;;;;;;;11.13;1.80;;;;;;;;;;5013734;28;20583;-89
2022/06/08 03:37:18;;;;;;;12.50;2.77;;;;;;;;;;5013634;28;20498;-89
2022/06/08 03:39:45;;;;;;;14.23;2.60;;;;;;;;;;4997706;28;21008;-89
2022/06/08 03:42:13;;;;;;;14.33;2.60;;;;;;;;;;4997966;28;20487;-89
2022/06/08 03:44:40;;;;;;;11.53;3.10;;;;;;;;;;4997474;28;20531;-89
2022/06/08 03:47:09;;;;;;;6.40;2.33;;;;;;;;;;4997601;28;21002;-89
2022/06/08 03:49:36;;;;;;;11.37;2.53;;;;;;;;;;4997191;28;20575;-89
2022/06/08 03:52:04;;;;;;;17.20;3.13;;;;;;;;;;4997367;28;20445;-87
2022/06/08 03:54:32;;;;;;;14.27;2.77;;;;;;;;;;4997057;28;20445;-88
2022/06/08 03:57:00;;;;;;;18.73;2.87;;;;;;;;;;4996880;28;20487;-89
2022/06/08 03:59:28;;;;;;;13.60;3.27;;;;;;;;;;5013738;28;20451;-88
2022/06/08 04:01:55;;;;;;;22.60;4.60;;;;;;;;;;5030098;28;20432;-89
2022/06/08 04:04:22;;;;;;;9.77;2.10;;;;;;;;;;5013211;28;20446;-89
2022/06/08 04:06:49;;;;;;;8.77;2.07;;;;;;;;;;4996944;28;20448;-89
2022/06/08 04:09:16;;;;;;;13.00;2.17;;;;;;;;;;4996884;28;20476;-88
2022/06/08 04:11:43;;;;;;;10.50;2.47;;;;;;;;;;4996815;28;20503;-89
2022/06/08 04:14:11;;;;;;;8.53;1.53;;;;;;;;;;5012735;28;20854;-89
2022/06/08 04:16:38;;;;;;;6.03;2.07;;;;;;;;;;5013037;28;20527;-89
2022/06/08 04:19:06;;;;;;;4.47;1.23;;;;;;;;;;5013603;28;20440;-91
2022/06/08 04:21:33;;;;;;;6.53;1.60;;;;;;;;;;5029362;28;20448;-89
2022/06/08 04:24:00;;;;;;;5.83;1.60;;;;;;;;;;4997215;28;20511;-89
2022/06/08 04:26:28;;;;;;;4.07;1.10;;;;;;;;;;4997213;28;20790;-90
2022/06/08 04:28:56;;;;;;;2.63;0.70;;;;;;;;;;5011682;28;20483;-88
2022/06/08 04:31:23;;;;;;;3.40;1.33;;;;;;;;;;5012958;28;20444;-90
2022/06/08 04:33:53;;;;;;;4.27;0.90;;;;;;;;;;4992724;28;20900;-89
2022/06/08 04:36:20;;;;;;;4.10;1.10;;;;;;;;;;4993138;28;20441;-90
2022/06/08 04:38:47;;;;;;;2.70;0.97;;;;;;;;;;4992574;28;20508;-90
2022/06/08 04:41:16;;;;;;;1.93;1.20;;;;;;;;;;4993135;28;20453;-90
2022/06/08 04:43:45;;;;;;;2.83;1.03;;;;;;;;;;4993293;28;20488;-90
2022/06/08 04:46:15;;;;;;;4.70;0.90;;;;;;;;;;5009450;28;20549;-89
2022/06/08 04:48:43;;;;;;;1.90;0.80;;;;;;;;;;4993617;28;20473;-89
2022/06/08 04:51:11;;;;;;;3.77;1.20;;;;;;;;;;4992652;28;20495;-89
2022/06/08 04:53:38;;;;;;;2.83;0.80;;;;;;;;;;4993338;28;20437;-89
2022/06/08 04:56:06;;;;;;;4.20;0.90;;;;;;;;;;4992413;28;20441;-88
2022/06/08 04:58:33;;;;;;;4.60;0.80;;;;;;;;;;4977196;28;20469;-90
2022/06/08 05:01:01;;;;;;;2.60;0.80;;;;;;;;;;4993197;28;20444;-89
2022/06/08 05:03:29;;;;;;;2.27;0.60;;;;;;;;;;4977238;28;20516;-90
2022/06/08 05:05:57;;;;;;;3.23;0.60;;;;;;;;;;4992965;28;20443;-89
2022/06/08 05:08:25;;;;;;;2.80;0.70;;;;;;;;;;4992535;28;20469;-89
2022/06/08 05:10:54;;;;;;;1.57;0.50;;;;;;;;;;5008993;28;20476;-90
2022/06/08 05:13:22;;;;;;;3.00;0.40;;;;;;;;;;5008925;28;20452;-88
2022/06/08 05:15:49;;;;;;;1.80;0.50;;;;;;;;;;4992645;28;20951;-89
2022/06/08 05:18:18;;;;;;;1.77;0.53;;;;;;;;;;4992843;28;20469;-88
2022/06/08 05:20:46;;;;;;;2.17;0.60;;;;;;;;;;4992700;28;20445;-89
2022/06/08 05:23:18;;;;;;;2.20;0.60;;;;;;;;;;4976270;28;20491;-89
2022/06/08 05:25:45;;;;;;;1.43;0.50;;;;;;;;;;4957305;28;21065;-89
2022/06/08 05:28:13;;;;;;;2.70;0.60;;;;;;;;;;4973315;28;20534;-89
2022/06/08 05:30:42;;;;;;;3.53;1.33;;;;;;;;;;4977829;28;20509;-90
2022/06/08 05:33:10;;;;;;;2.80;0.70;;;;;;;;;;5008478;28;20444;-90
2022/06/08 05:35:37;;;;;;;2.00;0.50;;;;;;;;;;4992826;28;20465;-89
2022/06/08 05:38:05;;;;;;;1.77;0.50;;;;;;;;;;5008751;28;20453;-90
2022/06/08 05:40:33;;;;;;;3.83;0.43;;;;;;;;;;4998508;28;20449;-88
2022/06/08 05:43:00;;;;;;;1.60;0.50;;;;;;;;;;4976867;28;20444;-89
2022/06/08 05:45:28;;;;;;;1.50;0.50;;;;;;;;;;4992446;28;20441;-90
2022/06/08 05:47:55;;;;;;;2.27;0.80;;;;;;;;;;4976627;28;21019;-89
2022/06/08 05:50:22;;;;;;;1.53;0.63;;;;;;;;;;4992278;28;20528;-90
2022/06/08 05:52:49;;;;;;;2.73;0.70;;;;;;;;;;4992244;28;20473;-90
2022/06/08 05:55:20;;;;;;;3.30;0.80;;;;;;;;;;4976781;28;20457;-90
2022/06/08 05:57:47;;;;;;;1.77;0.60;;;;;;;;;;4972511;28;20478;-90
2022/06/08 06:00:16;;;;;;;1.73;0.57;;;;;;;;;;4973884;28;20473;-90
2022/06/08 06:02:43;;;;;;;1.63;0.60;;;;;;;;;;4972950;28;20438;-90
2022/06/08 06:05:31;;;;;;;2.60;0.60;;;;;;;;;;4962706;28;20581;-91
2022/06/08 06:36:37;;;;;;;3.40;0.70;;;;;;;;;;5008684;28;20450;-86
2022/06/08 06:39:06;;;;;;;2.57;0.90;;;;;;;;;;4990302;28;20448;-86
2022/06/08 07:06:05;;;;;;;2.60;0.70;;;;;;;;;;4996826;28;20443;-90
2022/06/08 07:08:41;;;;;;;2.10;0.60;;;;;;;;;;4996283;28;20441;-91
2022/06/08 07:14:00;;;;;;;1.87;0.70;;;;;;;;;;4935613;29;20455;-90
2022/06/08 07:59:37;;;;;;;4.37;0.83;;;;;;;;;;5010509;28;20466;-90
2022/06/08 08:02:06;;;;;;;6.83;1.20;;;;;;;;;;5012593;28;20534;-89
2022/06/08 08:04:35;;;;;;;5.03;1.00;;;;;;;;;;5010737;28;20963;-89
2022/06/08 08:07:03;;;;;;;3.73;0.77;;;;;;;;;;5011755;28;20452;-88
2022/06/08 08:09:33;;;;;;;3.87;1.90;;;;;;;;;;5028942;28;20488;-89
2022/06/08 08:12:01;;;;;;;5.87;1.33;;;;;;;;;;4998000;28;20887;-89
2022/06/08 08:14:29;;;;;;;5.10;1.33;;;;;;;;;;5016194;28;20460;-88
2022/06/08 08:16:57;;;;;;;6.73;1.90;;;;;;;;;;5002263;28;20452;-88
2022/06/08 08:19:25;;;;;;;6.70;1.60;;;;;;;;;;4996790;28;20448;-89
2022/06/08 08:21:53;;;;;;;4.33;1.60;;;;;;;;;;5012210;28;20450;-89
2022/06/08 08:27:42;;;;;;;2.50;1.20;;;;;;;;;;4994621;28;20397;-88
2022/06/08 08:30:11;;;;;;;13.80;8.30;;;;;;;;;;5007267;28;20484;-89
2022/06/08 08:35:52;;;;;;;4.33;1.80;;;;;;;;;;4992248;28;20465;-89
2022/06/08 08:38:21;;;;;;;3.23;1.80;;;;;;;;;;4975418;28;21102;-88
2022/06/08 08:40:50;;;;;;;5.03;1.47;;;;;;;;;;4974325;28;21014;-89
2022/06/08 08:46:54;;;;;;;6.97;4.00;;;;;;;;;;4972736;28;20840;-87
2022/06/08 08:49:23;;;;;;;8.50;4.10;;;;;;;;;;4984671;28;20896;-88
2022/06/08 08:52:21;;;;;;;9.63;3.17;;;;;;;;;;4945689;28;20453;-88
2022/06/08 08:54:54;;;;;;;6.37;3.20;;;;;;;;;;4988213;28;20509;-88
2022/06/08 08:57:30;;;;;;;6.13;3.00;;;;;;;;;;4978504;28;20449;-88
2022/06/08 08:59:57;;;;;;;5.03;3.63;;;;;;;;;;4957843;28;20471;-88
2022/06/08 09:08:48;;;;;;;5.10;3.67;;;;;;;;;;5907059;23;20396;-84
2022/06/08 09:11:23;;;;;;;6.00;3.57;;;;;;;;;;4879158;29;24182;-84
2022/06/08 09:13:59;;;;;;;6.13;4.10;;;;;;;;;;4884616;29;20466;-83
2022/06/08 09:16:39;;;;;;;5.87;3.60;;;;;;;;;;4880195;29;20454;-83
2022/06/08 09:19:23;;;;;;;5.60;4.07;;;;;;;;;;4879197;29;20454;-84
2022/06/08 09:21:53;;;;;;;13.23;4.40;;;;;;;;;;4895370;29;20516;-83
2022/06/08 09:24:39;;;;;;;6.53;4.27;;;;;;;;;;4894329;29;20461;-83
2022/06/08 09:27:12;;;;;;;7.97;4.40;;;;;;;;;;4878713;29;20460;-83
2022/06/08 09:29:59;;;;;;;7.20;3.70;;;;;;;;;;4895091;29;20992;-84
2022/06/08 09:35:55;;;;;;;4.50;2.80;;;;;;;;;;4896077;29;20445;-85
2022/06/08 09:38:25;;;;;;;10.50;2.67;;;;;;;;;;4880745;29;20449;-85
2022/06/08 09:41:00;;;;;;;4.97;2.67;;;;;;;;;;4895843;29;20457;-85
2022/06/08 09:43:28;;;;;;;5.07;3.23;;;;;;;;;;4877777;29;20453;-86
2022/06/08 09:45:57;;;;;;;6.10;4.00;;;;;;;;;;4896203;29;20450;-84
2022/06/08 09:51:25;;;;;;;5.43;4.00;;;;;;;;;;4896584;29;20501;-85
2022/06/08 09:54:04;;;;;;;6.20;4.00;;;;;;;;;;4872826;29;20823;-86
2022/06/08 09:56:35;;;;;;;5.37;3.70;;;;;;;;;;4890752;29;20457;-86
2022/06/08 09:59:25;;;;;;;8.80;3.00;;;;;;;;;;4896876;29;20442;-85
2022/06/08 10:01:54;;;;;;;8.80;2.90;;;;;;;;;;4897250;29;20461;-85
2022/06/08 10:04:31;;;;;;;3.50;2.07;;;;;;;;;;4880176;29;20446;-85
2022/06/08 10:07:14;;;;;;;5.40;2.43;;;;;;;;;;4885015;29;20460;-86
2022/06/08 10:09:51;;;;;;;4.90;2.60;;;;;;;;;;4895813;29;20496;-87
2022/06/08 10:12:26;;;;;;;6.03;2.30;;;;;;;;;;4896905;29;20493;-87
2022/06/08 10:14:57;;;;;;;5.30;2.57;;;;;;;;;;4868596;29;20468;-88
2022/06/08 10:17:41;;;;;;;7.10;2.20;;;;;;;;;;4885545;29;20473;-87
2022/06/08 10:20:16;;;;;;;3.77;2.40;;;;;;;;;;4898290;29;20514;-87
2022/06/08 10:22:49;;;;;;;5.00;2.50;;;;;;;;;;4884835;29;20464;-87
2022/06/08 10:25:16;;;;;;;6.83;2.60;;;;;;;;;;4875608;29;20469;-87
2022/06/08 10:27:58;;;;;;;4.80;2.40;;;;;;;;;;4881460;29;20572;-90
2022/06/08 10:30:25;;;;;;;6.70;2.43;;;;;;;;;;4867797;29;20489;-90
2022/06/08 10:33:02;;;;;;;4.67;2.10;;;;;;;;;;4891549;29;20509;-93
2022/06/08 10:35:46;;;;;;;7.13;2.27;;;;;;;;;;4884718;29;20469;-94
2022/06/08 10:38:33;;;;;;;3.67;2.00;;;;;;;;;;4884328;29;20461;-93
2022/06/08 10:43:58;;;;;;;11.40;1.47;;;;;;;;;;4900789;29;20468;-89
2022/06/08 10:46:38;;;;;;;2.67;1.47;;;;;;;;;;4867168;29;20457;-91
2022/06/08 10:49:10;;;;;;;2.77;1.20;;;;;;;;;;4877933;29;20963;-90
2022/06/08 10:52:06;;;;;;;2.20;1.20;;;;;;;;;;4868951;29;20453;-91
2022/06/08 10:54:55;;;;;;;4.20;1.00;;;;;;;;;;4888466;29;20477;-90
2022/06/08 10:57:42;;;;;;;5.07;1.60;;;;;;;;;;4886842;29;20873;-90
2022/06/08 11:00:19;;;;;;;1.60;1.10;;;;;;;;;;4902952;29;20460;-89
2022/06/08 11:02:47;;;;;;;3.77;1.20;;;;;;;;;;4898220;29;20472;-90
2022/06/08 11:05:31;;;;;;;4.53;1.33;;;;;;;;;;4896328;29;20450;-90
2022/06/08 11:07:58;;;;;;;1.80;1.03;;;;;;;;;;4889076;29;20450;-88
2022/06/08 11:10:51;;;;;;;3.40;1.20;;;;;;;;;;4904338;29;20497;-90
2022/06/08 11:13:24;;;;;;;4.23;1.13;;;;;;;;;;4888031;29;20462;-91
2022/06/08 11:15:52;;;;;;;2.10;1.13;;;;;;;;;;4902813;29;20437;-91
2022/06/08 11:18:31;;;;;;;2.60;1.60;;;;;;;;;;4893261;29;20458;-91
2022/06/08 11:21:04;;;;;;;3.53;1.30;;;;;;;;;;4897115;29;20477;-91
2022/06/08 11:23:51;;;;;;;2.27;1.30;;;;;;;;;;4900264;29;20449;-91
2022/06/08 11:26:23;;;;;;;2.03;1.30;;;;;;;;;;4891779;29;20446;-91
2022/06/08 11:28:58;;;;;;;1.93;1.07;;;;;;;;;;4884871;29;20975;-91
2022/06/08 11:31:26;;;;;;;3.13;1.40;;;;;;;;;;4898751;29;20583;-90
2022/06/08 11:36:47;;;;;;;2.83;0.80;;;;;;;;;;4905472;29;20450;-90
2022/06/08 11:39:21;;;;;;;4.90;2.47;;;;;;;;;;4901299;29;20482;-90
2022/06/08 11:42:22;;;;;;;5.43;0.93;;;;;;;;;;4891026;29;20477;-91
2022/06/08 11:44:54;;;;;;;5.40;1.20;;;;;;;;;;4882623;29;20441;-91
2022/06/08 11:47:29;;;;;;;11.33;1.70;;;;;;;;;;4883994;29;20454;-91
2022/06/08 11:49:58;;;;;;;2.50;0.73;;;;;;;;;;4899050;29;20555;-91
2022/06/08 11:52:34;;;;;;;7.33;0.87;;;;;;;;;;4899555;29;20441;-91
2022/06/08 11:55:27;;;;;;;1.50;0.50;;;;;;;;;;4899920;29;20449;-91
2022/06/08 11:58:00;;;;;;;1.90;0.77;;;;;;;;;;4899690;29;20438;-91
2022/06/08 12:00:29;;;;;;;2.53;0.90;;;;;;;;;;4880770;29;20475;-90
2022/06/08 12:03:07;;;;;;;4.37;0.60;;;;;;;;;;4878895;29;20478;-91
2022/06/08 12:05:36;;;;;;;4.13;0.93;;;;;;;;;;4899263;29;20442;-91
2022/06/08 12:08:08;;;;;;;4.83;1.10;;;;;;;;;;4883532;29;20451;-91
2022/06/08 12:10:55;;;;;;;2.40;0.93;;;;;;;;;;4862654;29;20494;-91
2022/06/08 12:13:28;;;;;;;1.83;0.80;;;;;;;;;;4881769;29;20498;-91
2022/06/08 12:15:56;;;;;;;5.50;0.80;;;;;;;;;;4896733;29;20454;-90
2022/06/08 12:18:30;;;;;;;2.20;0.73;;;;;;;;;;4880486;29;20461;-91
2022/06/08 12:21:03;;;;;;;4.67;1.00;;;;;;;;;;4863047;29;20469;-93
2022/06/08 12:23:44;;;;;;;3.77;0.80;;;;;;;;;;4866951;29;20533;-92
2022/06/08 12:30:06;;;;;;;1.50;0.50;;;;;;;;;;4892999;29;20517;-93
2022/06/08 12:32:39;;;;;;;2.07;0.70;;;;;;;;;;4894063;29;20971;-92
2022/06/08 12:35:07;;;;;;;2.87;0.50;;;;;;;;;;4882512;29;20453;-92
2022/06/08 12:37:45;;;;;;;3.03;0.50;;;;;;;;;;4882373;29;20461;-92
2022/06/08 12:40:32;;;;;;;7.53;0.97;;;;;;;;;;4882690;29;20457;-93
2022/06/08 12:43:21;;;;;;;2.87;0.80;;;;;;;;;;4886913;29;20455;-92
2022/06/08 12:48:58;;;;;;;5.67;0.57;;;;;;;;;;4891585;29;20456;-94
2022/06/08 12:51:43;;;;;;;2.23;0.60;;;;;;;;;;4896460;29;20486;-93
2022/06/08 12:58:02;;;;;;;4.90;0.63;;;;;;;;;;4898876;29;20437;-93
2022/06/08 13:00:45;;;;;;;1.27;0.40;;;;;;;;;;4879637;29;20541;-93
2022/06/08 13:03:28;;;;;;;1.40;0.40;;;;;;;;;;4867134;29;20441;-93
2022/06/08 13:06:00;;;;;;;2.87;0.60;;;;;;;;;;4881243;29;20531;-93
2022/06/08 13:08:38;;;;;;;1.77;0.50;;;;;;;;;;4885843;29;20438;-93
2022/06/08 13:14:36;;;;;;;3.33;0.60;;;;;;;;;;4897749;29;20453;-92
2022/06/08 13:17:07;;;;;;;3.10;0.53;;;;;;;;;;4887105;29;20453;-91
2022/06/08 13:19:36;;;;;;;5.23;0.40;;;;;;;;;;4893473;29;20453;-90
2022/06/08 13:22:05;;;;;;;3.20;0.40;;;;;;;;;;4882281;29;20452;-90
2022/06/08 13:24:33;;;;;;;1.93;0.53;;;;;;;;;;4880193;29;20453;-91
2022/06/08 13:27:01;;;;;;;1.67;0.50;;;;;;;;;;4881218;29;20454;-90
2022/06/08 13:29:28;;;;;;;2.30;0.43;;;;;;;;;;4863535;29;20962;-90
2022/06/08 13:31:56;;;;;;;4.43;0.60;;;;;;;;;;4874332;29;20493;-90
2022/06/08 13:34:23;;;;;;;1.57;0.50;;;;;;;;;;4897307;29;20462;-89
2022/06/08 13:36:55;;;;;;;3.40;0.83;;;;;;;;;;4896931;29;20437;-90
2022/06/08 13:39:24;;;;;;;2.07;0.67;;;;;;;;;;4881461;29;20458;-90
2022/06/08 13:41:53;;;;;;;1.37;0.50;;;;;;;;;;4880737;29;20457;-91
2022/06/08 13:44:24;;;;;;;2.87;0.40;;;;;;;;;;4880832;29;20454;-91
2022/06/08 13:47:06;;;;;;;2.20;0.40;;;;;;;;;;4895575;29;20457;-91
2022/06/08 13:49:34;;;;;;;1.87;0.50;;;;;;;;;;4879045;29;20442;-91
2022/06/08 13:52:01;;;;;;;3.23;0.47;;;;;;;;;;4883319;29;20488;-90
2022/06/08 13:54:30;;;;;;;1.20;0.50;;;;;;;;;;4898250;29;20456;-90
2022/06/08 13:57:00;;;;;;;2.30;0.60;;;;;;;;;;4886805;29;20452;-90
2022/06/08 13:59:28;;;;;;;4.43;0.63;;;;;;;;;;4901373;29;20532;-90
2022/06/08 14:01:56;;;;;;;3.60;0.70;;;;;;;;;;4885604;29;20488;-90
2022/06/08 14:04:25;;;;;;;4.00;0.87;;;;;;;;;;4883377;29;20443;-90
2022/06/08 14:15:23;;;;;;;3.10;0.50;;;;;;;;;;4894708;29;20454;-89
2022/06/08 14:17:58;;;;;;;1.93;0.50;;;;;;;;;;4897411;29;20450;-90
2022/06/08 14:20:31;;;;;;;2.50;0.50;;;;;;;;;;4878050;29;20462;-89
2022/06/08 14:23:05;;;;;;;4.57;0.40;;;;;;;;;;4881605;29;20452;-90
2022/06/08 14:25:33;;;;;;;1.30;0.40;;;;;;;;;;4882339;29;20454;-91
2022/06/08 14:28:02;;;;;;;8.30;0.67;;;;;;;;;;4879692;29;20459;-90
2022/06/08 14:30:33;;;;;;;2.60;0.60;;;;;;;;;;4880953;29;20482;-90
2022/06/08 14:33:01;;;;;;;3.53;0.70;;;;;;;;;;4881665;29;20435;-90
2022/06/08 14:35:30;;;;;;;3.53;0.80;;;;;;;;;;4894354;29;20859;-90
2022/06/08 14:38:19;;;;;;;2.43;0.60;;;;;;;;;;4876213;29;20447;-90
2022/06/08 14:40:48;;;;;;;3.97;0.63;;;;;;;;;;4871399;29;20458;-90
2022/06/08 14:43:17;;;;;;;3.40;0.50;;;;;;;;;;4891132;29;20941;-89
2022/06/08 14:45:46;;;;;;;2.60;0.70;;;;;;;;;;4898889;29;20457;-90
2022/06/08 14:48:17;;;;;;;3.80;0.53;;;;;;;;;;4896950;29;20956;-90
2022/06/08 14:50:47;;;;;;;3.23;0.80;;;;;;;;;;4881386;29;20521;-91
2022/06/08 14:53:15;;;;;;;3.33;0.50;;;;;;;;;;4893860;29;20459;-91
2022/06/08 14:58:31;;;;;;;2.33;0.70;;;;;;;;;;4893164;29;20454;-90
2022/06/08 15:01:03;;;;;;;2.40;0.70;;;;;;;;;;4879302;29;20458;-90
2022/06/08 15:03:30;;;;;;;2.60;0.70;;;;;;;;;;4880533;29;20479;-90
2022/06/08 15:06:01;;;;;;;8.03;0.80;;;;;;;;;;4879936;29;20972;-90
2022/06/08 15:08:31;;;;;;;5.40;0.93;;;;;;;;;;4868443;29;20451;-90
2022/06/08 15:14:45;;;;;;;4.00;1.00;;;;;;;;;;4856891;29;20463;-91
2022/06/08 15:18:32;;;;;;;7.30;0.83;;;;;;;;;;4815639;29;20462;-90
2022/06/08 15:20:29;;;;;;;3.17;0.90;;;;;;;;;;4838090;29;20458;-90
2022/06/08 15:22:57;;;;;;;3.17;0.63;;;;;;;;;;4828020;29;20461;-91
2022/06/08 15:25:30;;;;;;;3.87;0.53;;;;;;;;;;4817516;29;20615;-91
2022/06/08 15:28:22;;;;;;;5.97;1.07;;;;;;;;;;4803508;29;21150;-91
2022/06/08 15:30:59;;;;;;;7.00;1.13;;;;;;;;;;4827995;29;20484;-90
2022/06/08 15:33:30;;;;;;;3.93;0.70;;;;;;;;;;4820237;29;20460;-91
2022/06/08 15:36:36;;;;;;;4.07;0.80;;;;;;;;;;4804308;29;20898;-95
2022/06/08 15:39:09;;;;;;;3.00;1.00;;;;;;;;;;4811856;29;20462;-90
2022/06/08 15:41:36;;;;;;;3.23;0.77;;;;;;;;;;4806647;29;20458;-92
2022/06/08 15:44:16;;;;;;;1.50;0.40;;;;;;;;;;4812622;29;20506;-93
2022/06/08 15:46:44;;;;;;;1.27;0.70;;;;;;;;;;4815582;29;20451;-93
2022/06/08 15:49:30;;;;;;;2.50;0.60;;;;;;;;;;4812670;29;20457;-93
2022/06/08 15:52:03;;;;;;;2.23;0.77;;;;;;;;;;4883173;29;20478;-92
2022/06/08 15:54:44;;;;;;;2.60;0.80;;;;;;;;;;4878765;29;20965;-93
2022/06/08 15:57:46;;;;;;;2.53;0.80;;;;;;;;;;4873222;29;20530;-93
2022/06/08 16:00:21;;;;;;;3.90;1.20;;;;;;;;;;4809755;29;20454;-93
2022/06/08 16:02:54;;;;;;;1.83;0.90;;;;;;;;;;4806784;29;20991;-93
2022/06/08 16:05:33;;;;;;;5.10;1.10;;;;;;;;;;4808616;29;20498;-93
2022/06/08 16:08:15;;;;;;;3.33;0.90;;;;;;;;;;4823037;29;20485;-93
2022/06/08 16:10:45;;;;;;;4.00;1.37;;;;;;;;;;4818217;29;20484;-92
2022/06/08 16:13:13;;;;;;;1.97;0.60;;;;;;;;;;4819374;29;21620;-92
2022/06/08 16:15:41;;;;;;;8.67;1.57;;;;;;;;;;4819811;29;20455;-94
2022/06/08 16:18:09;;;;;;;11.90;1.30;;;;;;;;;;4816130;29;20976;-93
2022/06/08 16:20:42;;;;;;;3.63;0.90;;;;;;;;;;4811402;29;20481;-93
2022/06/08 16:23:10;;;;;;;4.70;0.97;;;;;;;;;;4810838;29;20547;-91
2022/06/08 16:25:50;;;;;;;4.30;1.30;;;;;;;;;;4811492;29;20461;-93
2022/06/08 16:28:23;;;;;;;7.17;1.30;;;;;;;;;;4808275;29;20469;-91
2022/06/08 16:31:02;;;;;;;3.50;1.20;;;;;;;;;;4806335;29;20469;-92
2022/06/08 16:33:29;;;;;;;4.73;1.20;;;;;;;;;;4804294;29;20523;-92
2022/06/08 16:38:51;;;;;;;9.03;1.13;;;;;;;;;;4878188;29;20447;-93
2022/06/08 16:41:25;;;;;;;3.23;1.13;;;;;;;;;;4883522;29;20471;-92
2022/06/08 16:43:56;;;;;;;3.80;1.07;;;;;;;;;;4868901;29;20465;-92
2022/06/08 16:46:30;;;;;;;3.53;0.90;;;;;;;;;;4880537;29;20449;-92
2022/06/08 16:48:58;;;;;;;3.63;1.00;;;;;;;;;;4878492;29;20475;-92
2022/06/08 16:51:42;;;;;;;6.47;1.10;;;;;;;;;;4880048;29;20494;-92
2022/06/08 16:54:16;;;;;;;5.27;1.30;;;;;;;;;;4876276;29;21017;-92
2022/06/08 17:11:46;;;;;;;;;;;;;;;;;;;;;
2022/06/08 17:42:21;;;;;;;3.67;1.63;;;;;;;;;;4896831;29;20469;-92
2022/06/08 18:02:11;;;;;;;4.20;1.47;;;;;;;;;;4899075;29;20429;-90
2022/06/08 18:04:47;;;;;;;6.10;1.37;;;;;;;;;;4898828;29;20481;-93
2022/06/08 19:53:20;;;;;;;8.27;1.57;;;;;;;;;;4903652;29;20452;-93
2022/06/08 19:55:58;;;;;;;11.07;2.87;;;;;;;;;;4900421;29;20537;-94
2022/06/08 20:01:59;;;;;;;4.77;1.73;;;;;;;;;;4904197;29;20449;-93
2022/06/08 20:04:32;;;;;;;7.30;2.07;;;;;;;;;;4889452;29;20458;-94
2022/06/08 20:07:07;;;;;;;11.00;1.80;;;;;;;;;;4906989;29;20488;-93
2022/06/08 20:09:39;;;;;;;10.50;2.60;;;;;;;;;;4884696;29;21044;-93
2022/06/08 20:12:32;;;;;;;10.27;1.83;;;;;;;;;;4902201;29;20492;-94
2022/06/08 20:18:42;;;;;;;8.13;2.40;;;;;;;;;;4890910;29;20454;-92
2022/06/08 20:24:27;;;;;;;6.80;2.10;;;;;;;;;;4897227;29;20967;-94
2022/06/08 20:26:55;;;;;;;6.20;2.50;;;;;;;;;;4862205;29;20517;-95
2022/06/08 20:29:23;;;;;;;7.80;2.17;;;;;;;;;;4863344;29;20455;-93
2022/06/08 20:31:50;;;;;;;11.30;2.10;;;;;;;;;;4847520;29;20997;-94
2022/06/08 20:34:17;;;;;;;8.03;1.90;;;;;;;;;;4847301;29;20454;-91
2022/06/08 20:36:51;;;;;;;9.93;2.00;;;;;;;;;;4858948;29;20551;-90
2022/06/08 20:39:29;;;;;;;9.90;2.27;;;;;;;;;;4828751;29;20453;-90
2022/06/08 20:41:59;;;;;;;9.93;2.27;;;;;;;;;;4859001;29;20447;-90
2022/06/08 20:44:33;;;;;;;11.60;2.63;;;;;;;;;;4877758;29;20969;-91
2022/06/08 20:47:03;;;;;;;4.00;1.73;;;;;;;;;;4862546;29;20957;-92
2022/06/08 20:49:39;;;;;;;9.63;2.80;;;;;;;;;;4860226;29;20453;-92
2022/06/08 20:52:10;;;;;;;7.17;1.83;;;;;;;;;;4838899;29;20487;-92